Time;durP1;ratioP1;P1;durP2;ratioP2;P2;SDS_P1;SDS_P2;PMS_P1;PMS_P2;Temp;Humidity;BMP_temperature;BMP_pressure;BME280_temperature;BME280_humidity;BME280_pressure;Samples;Min_cycle;Max_cycle;Signal;HPM_P1;HPM_P2
2022/11/21 00:01:47;;;;;;;11.55;6.32;;;;;;;-1.05;48.38;100588.16;5002153;28;20040;-68
2022/11/21 00:04:13;;;;;;;10.52;6.32;;;;;;;-1.04;48.54;100587.31;5006739;28;20034;-70
2022/11/21 00:06:38;;;;;;;13.75;6.82;;;;;;;-0.98;48.39;100582.19;5003992;28;20041;-69
2022/11/21 00:09:04;;;;;;;11.25;6.45;;;;;;;-0.95;48.18;100591.63;5008027;28;20060;-69
2022/11/21 00:11:29;;;;;;;13.73;7.18;;;;;;;-0.83;48.25;100588.25;4988773;28;20034;-68
2022/11/21 00:13:58;;;;;;;11.27;6.30;;;;;;;-0.84;47.94;100577.13;4985853;28;20066;-69
2022/11/21 00:16:23;;;;;;;12.57;6.78;;;;;;;-0.90;47.71;100577.09;4986965;28;20120;-68
2022/11/21 00:18:48;;;;;;;11.43;6.35;;;;;;;-0.80;48.07;100583.09;5000659;28;20092;-67
2022/11/21 00:21:16;;;;;;;12.07;7.38;;;;;;;-0.84;47.74;100586.50;5006684;28;20034;-66
2022/11/21 00:23:42;;;;;;;10.43;6.88;;;;;;;-0.89;47.93;100572.81;5004769;28;20778;-67
2022/11/21 00:26:10;;;;;;;15.27;7.55;;;;;;;-0.92;48.40;100578.81;5004803;28;20033;-68
2022/11/21 00:28:35;;;;;;;13.45;6.90;;;;;;;-0.93;48.59;100581.34;4980193;28;20045;-67
2022/11/21 00:31:02;;;;;;;10.15;6.60;;;;;;;-0.87;48.62;100581.38;4994165;28;20186;-68
2022/11/21 00:33:27;;;;;;;12.07;6.30;;;;;;;-0.87;48.52;100576.25;5004055;28;20050;-67
2022/11/21 00:35:52;;;;;;;8.52;5.30;;;;;;;-0.84;48.48;100578.81;4999280;28;20412;-67
2022/11/21 00:38:18;;;;;;;15.95;6.90;;;;;;;-0.86;48.17;100567.69;5006223;28;20045;-68
2022/11/21 00:40:46;;;;;;;11.88;6.13;;;;;;;-0.81;48.47;100571.13;5002184;28;20636;-69
2022/11/21 00:43:11;;;;;;;12.20;6.80;;;;;;;-0.74;48.40;100567.72;4987831;28;20077;-67
2022/11/21 00:45:39;;;;;;;12.13;6.50;;;;;;;-0.64;48.33;100574.59;4999059;28;20121;-68
2022/11/21 00:48:05;;;;;;;18.17;7.25;;;;;;;-0.62;48.08;100572.88;4989468;28;20048;-67
2022/11/21 00:50:30;;;;;;;11.05;6.20;;;;;;;-0.60;47.84;100571.16;5002845;28;20354;-69
2022/11/21 00:52:56;;;;;;;14.63;7.20;;;;;;;-0.51;47.85;100566.91;5005660;28;20767;-69
2022/11/21 00:55:22;;;;;;;12.40;7.03;;;;;;;-0.41;47.57;100561.78;4989726;28;20072;-68
2022/11/21 00:57:51;;;;;;;12.27;7.18;;;;;;;-0.48;47.55;100566.88;4977755;28;20056;-68
2022/11/21 01:00:17;;;;;;;13.73;6.43;;;;;;;-0.62;47.82;100562.59;5004119;28;20025;-68
2022/11/21 01:02:43;;;;;;;13.05;6.68;;;;;;;-0.66;48.50;100566.03;5004309;28;20474;-68
2022/11/21 01:05:08;;;;;;;10.13;6.00;;;;;;;-0.58;48.04;100559.19;4994202;28;20687;-69
2022/11/21 01:07:34;;;;;;;10.82;5.53;;;;;;;-0.56;47.94;100556.63;4984877;28;20040;-69
2022/11/21 01:10:00;;;;;;;10.13;6.47;;;;;;;-0.51;48.03;100554.06;4987647;28;20037;-69
2022/11/21 01:12:25;;;;;;;11.95;5.85;;;;;;;-0.54;47.92;100548.94;5004055;28;20128;-69
2022/11/21 01:14:50;;;;;;;10.00;5.45;;;;;;;-0.53;47.49;100541.22;5002422;28;20128;-68
2022/11/21 01:17:16;;;;;;;9.52;6.18;;;;;;;-0.60;47.05;100553.19;5002505;28;20041;-68
2022/11/21 01:19:41;;;;;;;13.88;7.13;;;;;;;-0.62;47.11;100556.59;5002404;28;20419;-70
2022/11/21 01:22:10;;;;;;;12.48;6.50;;;;;;;-0.58;47.32;100551.47;5001428;28;20042;-70
2022/11/21 01:24:35;;;;;;;15.88;8.07;;;;;;;-0.68;47.45;100561.72;5006392;28;20623;-70
2022/11/21 01:27:01;;;;;;;13.23;7.60;;;;;;;-0.80;47.66;100552.31;5004567;28;20132;-70
2022/11/21 01:29:27;;;;;;;12.70;7.13;;;;;;;-0.82;47.97;100554.84;4990069;28;20033;-72
2022/11/21 01:31:52;;;;;;;14.20;7.82;;;;;;;-0.75;47.92;100560.84;5003559;28;20153;-72
2022/11/21 01:34:17;;;;;;;16.25;7.55;;;;;;;-0.73;48.14;100564.28;5004447;28;20064;-65
2022/11/21 01:36:45;;;;;;;12.15;7.65;;;;;;;-0.78;47.80;100555.72;5003823;28;20144;-68
2022/11/21 01:39:11;;;;;;;10.30;6.80;;;;;;;-0.82;47.74;100559.13;5000217;28;20117;-66
2022/11/21 01:41:42;;;;;;;13.43;6.90;;;;;;;-0.82;48.06;100551.44;4979781;28;20026;-69
2022/11/21 01:44:19;;;;;;;12.00;7.20;;;;;;;-0.88;48.08;100554.03;4986375;28;20037;-69
2022/11/21 01:46:45;;;;;;;13.50;7.82;;;;;;;-1.02;47.96;100554.84;4976056;28;20065;-68
2022/11/21 01:49:12;;;;;;;16.08;8.20;;;;;;;-1.11;48.12;100552.19;4981152;28;20034;-68
2022/11/21 01:51:57;;;;;;;15.73;7.35;;;;;;;-1.16;48.58;100553.91;4988309;28;20312;-69
2022/11/21 01:54:46;;;;;;;12.52;6.32;;;;;;;-1.09;48.64;100555.63;5003614;28;20089;-69
2022/11/21 01:57:11;;;;;;;12.75;7.75;;;;;;;-1.13;48.51;100553.88;5003741;28;20103;-70
2022/11/21 01:59:50;;;;;;;13.07;7.82;;;;;;;-1.28;48.58;100549.59;4971873;28;20136;-67
2022/11/21 02:02:24;;;;;;;14.37;7.07;;;;;;;-1.38;49.22;100551.25;4970843;28;20067;-66
2022/11/21 02:04:52;;;;;;;15.90;7.80;;;;;;;-1.36;49.17;100558.09;5004022;28;20029;-67
2022/11/21 02:07:21;;;;;;;14.48;6.75;;;;;;;-1.42;49.19;100546.09;4985327;28;20419;-67
2022/11/21 02:09:54;;;;;;;16.17;8.32;;;;;;;-1.31;48.66;100553.84;4970761;28;20045;-66
2022/11/21 02:12:54;;;;;;;12.77;7.25;;;;;;;-1.42;49.22;100556.34;4981852;28;20032;-67
2022/11/21 02:15:22;;;;;;;12.90;7.88;;;;;;;-1.63;49.54;100547.72;5003073;28;20095;-67
2022/11/21 02:17:48;;;;;;;11.05;7.28;;;;;;;-1.57;49.51;100549.47;4990862;28;20364;-67
2022/11/21 02:20:16;;;;;;;14.18;8.23;;;;;;;-1.52;49.12;100549.47;5007357;28;20029;-66
2022/11/21 02:22:57;;;;;;;17.17;7.32;;;;;;;-1.60;49.53;100552.00;4971341;28;21042;-66
2022/11/21 02:25:26;;;;;;;13.02;8.05;;;;;;;-1.76;49.85;100550.19;5001625;28;20369;-65
2022/11/21 02:27:56;;;;;;;18.85;9.13;;;;;;;-1.90;50.22;100550.97;4989759;28;20217;-66
2022/11/21 02:30:22;;;;;;;14.63;7.95;;;;;;;-2.00;50.55;100554.31;5002939;28;20041;-65
2022/11/21 02:32:48;;;;;;;17.42;7.78;;;;;;;-1.99;50.61;100558.59;5000887;28;20044;-66
2022/11/21 02:35:15;;;;;;;15.88;7.28;;;;;;;-1.88;50.17;100554.41;5002946;28;20083;-66
2022/11/21 02:37:43;;;;;;;13.65;7.07;;;;;;;-1.98;50.60;100550.06;5006670;28;20041;-65
2022/11/21 02:40:17;;;;;;;12.60;6.43;;;;;;;-2.09;50.97;100552.56;4987035;28;20044;-65
2022/11/21 02:42:57;;;;;;;11.18;6.07;;;;;;;-2.15;51.40;100549.13;4986047;28;20099;-67
2022/11/21 02:45:29;;;;;;;15.25;7.20;;;;;;;-2.15;51.37;100557.66;5002791;28;20095;-67
2022/11/21 02:47:55;;;;;;;11.63;5.82;;;;;;;-2.23;51.48;100557.56;4999065;28;20042;-68
2022/11/21 02:50:28;;;;;;;13.93;7.20;;;;;;;-2.29;51.60;100557.53;4990716;28;20045;-70
2022/11/21 02:52:54;;;;;;;15.25;6.18;;;;;;;-2.26;51.39;100560.13;4989094;28;20136;-70
2022/11/21 02:55:21;;;;;;;15.70;6.30;;;;;;;-2.17;51.56;100559.34;4990183;28;20755;-69
2022/11/21 02:57:46;;;;;;;15.25;6.18;;;;;;;-2.08;50.97;100563.66;5004780;28;20037;-67
2022/11/21 03:00:12;;;;;;;9.77;5.93;;;;;;;-2.01;51.20;100560.28;5007561;28;20117;-67
2022/11/21 03:02:37;;;;;;;8.77;5.90;;;;;;;-2.01;51.31;100561.16;4987470;28;20102;-67
2022/11/21 03:05:06;;;;;;;13.50;7.10;;;;;;;-2.04;51.86;100560.28;5008401;28;20058;-68
2022/11/21 03:07:32;;;;;;;14.27;7.07;;;;;;;-1.99;51.66;100558.59;4989629;28;20509;-68
2022/11/21 03:09:57;;;;;;;13.52;7.18;;;;;;;-1.99;51.30;100557.75;4992297;28;20048;-68
2022/11/21 03:12:23;;;;;;;7.47;5.13;;;;;;;-2.07;51.46;100560.25;4992794;28;20057;-68
2022/11/21 03:14:49;;;;;;;11.38;5.57;;;;;;;-2.03;51.50;100557.72;5009236;28;20482;-68
2022/11/21 03:17:14;;;;;;;10.07;6.03;;;;;;;-2.11;51.73;100553.38;5004982;28;20056;-67
2022/11/21 03:19:39;;;;;;;14.52;6.72;;;;;;;-2.21;51.79;100550.75;4994230;28;20144;-67
2022/11/21 03:22:05;;;;;;;12.07;6.32;;;;;;;-2.24;52.14;100552.47;5009281;28;20045;-68
2022/11/21 03:24:31;;;;;;;10.27;5.22;;;;;;;-2.22;52.24;100550.78;4994173;28;20037;-67
2022/11/21 03:26:56;;;;;;;13.10;6.18;;;;;;;-2.11;51.91;100553.38;5007063;28;20075;-69
2022/11/21 03:29:22;;;;;;;8.98;5.80;;;;;;;-2.11;52.00;100545.69;5007125;28;20112;-68
2022/11/21 03:31:47;;;;;;;11.77;6.88;;;;;;;-2.16;52.15;100544.81;5006562;28;20852;-68
2022/11/21 03:34:13;;;;;;;10.95;6.28;;;;;;;-2.15;52.08;100537.16;5008200;28;20517;-67
2022/11/21 03:36:38;;;;;;;10.00;5.57;;;;;;;-2.13;51.92;100534.63;4991870;28;20861;-68
2022/11/21 03:39:08;;;;;;;11.35;5.90;;;;;;;-2.07;51.72;100544.88;5006080;28;20038;-70
2022/11/21 03:41:34;;;;;;;11.25;5.85;;;;;;;-2.13;52.12;100538.03;5003349;28;20037;-68
2022/11/21 03:44:08;;;;;;;15.07;7.15;;;;;;;-2.14;52.01;100540.56;4993630;28;20729;-68
2022/11/21 03:46:36;;;;;;;11.05;6.25;;;;;;;-2.17;51.97;100545.69;5004065;28;20060;-69
2022/11/21 03:49:02;;;;;;;14.18;7.00;;;;;;;-2.15;52.26;100544.00;4990554;28;20108;-69
2022/11/21 03:51:28;;;;;;;12.63;6.20;;;;;;;-2.06;52.13;100546.63;5004629;28;20048;-68
2022/11/21 03:53:54;;;;;;;11.68;6.15;;;;;;;-2.00;52.01;100546.63;4992212;28;20057;-69
2022/11/21 03:56:22;;;;;;;10.25;6.28;;;;;;;-2.04;52.05;100545.78;5002193;28;20034;-69
2022/11/21 03:58:48;;;;;;;13.82;6.93;;;;;;;-2.03;51.89;100546.63;5000747;28;20049;-70
2022/11/21 04:01:14;;;;;;;10.98;6.63;;;;;;;-2.00;51.84;100536.38;4973708;28;20036;-70
2022/11/21 04:03:43;;;;;;;11.13;6.30;;;;;;;-1.88;51.67;100540.75;4989075;28;20045;-70
2022/11/21 04:06:13;;;;;;;16.00;7.03;;;;;;;-1.77;51.55;100535.69;4989918;28;20096;-69
2022/11/21 04:08:39;;;;;;;14.27;6.78;;;;;;;-1.74;51.24;100538.25;5001925;28;20563;-67
2022/11/21 04:11:05;;;;;;;12.20;6.63;;;;;;;-1.77;51.28;100528.00;4989406;28;20044;-71
2022/11/21 04:13:31;;;;;;;18.77;7.43;;;;;;;-1.91;51.20;100531.34;4988306;28;20033;-70
2022/11/21 04:15:56;;;;;;;12.05;7.57;;;;;;;-1.98;51.41;100519.31;4988369;28;20138;-71
2022/11/21 04:18:29;;;;;;;15.02;8.25;;;;;;;-2.00;51.24;100526.13;5004227;28;20136;-71
2022/11/21 04:20:59;;;;;;;12.52;7.13;;;;;;;-2.01;51.22;100522.72;4977712;28;20098;-71
2022/11/21 04:23:26;;;;;;;11.77;6.90;;;;;;;-2.01;51.33;100519.31;5003580;28;20045;-73
2022/11/21 04:25:51;;;;;;;14.20;7.53;;;;;;;-1.85;51.10;100525.38;5005644;28;20036;-71
2022/11/21 04:28:17;;;;;;;16.15;7.75;;;;;;;-1.81;51.04;100532.25;5005080;28;20037;-69
2022/11/21 04:30:43;;;;;;;17.10;8.43;;;;;;;-1.97;51.19;100527.88;4993435;28;20080;-69
2022/11/21 04:33:10;;;;;;;12.40;8.00;;;;;;;-1.87;51.21;100538.19;5005788;28;20053;-69
2022/11/21 04:35:36;;;;;;;12.35;7.65;;;;;;;-2.10;51.21;100530.34;5005526;28;20046;-70
2022/11/21 04:38:01;;;;;;;17.92;8.00;;;;;;;-2.00;50.99;100531.25;4992737;28;20045;-68
2022/11/21 04:40:27;;;;;;;10.60;6.97;;;;;;;-1.89;50.47;100524.53;5006553;28;20048;-69
2022/11/21 04:42:52;;;;;;;13.63;6.63;;;;;;;-1.94;50.65;100517.66;4987541;28;20076;-68
2022/11/21 04:45:17;;;;;;;12.45;7.63;;;;;;;-2.16;50.97;100519.22;5005988;28;20068;-67
2022/11/21 04:47:45;;;;;;;12.10;7.38;;;;;;;-2.08;51.19;100520.13;4991331;28;20510;-66
2022/11/21 04:50:14;;;;;;;15.88;8.57;;;;;;;-2.33;51.26;100517.41;5001853;28;20038;-65
2022/11/21 04:52:40;;;;;;;15.40;8.15;;;;;;;-2.18;51.58;100518.34;5000988;28;20073;-66
2022/11/21 04:55:07;;;;;;;14.13;7.82;;;;;;;-2.16;51.14;100508.97;5003553;28;20028;-66
2022/11/21 04:57:33;;;;;;;15.23;7.15;;;;;;;-2.19;51.08;100498.72;5005368;28;20587;-67
2022/11/21 04:59:59;;;;;;;16.40;8.40;;;;;;;-2.19;50.72;100514.09;4987277;28;21852;-68
2022/11/21 05:02:24;;;;;;;16.73;7.60;;;;;;;-2.22;50.81;100504.69;4992976;28;20053;-68
2022/11/21 05:04:50;;;;;;;11.65;6.80;;;;;;;-2.34;50.96;100500.31;5002306;28;20068;-67
2022/11/21 05:07:16;;;;;;;13.30;6.70;;;;;;;-2.35;50.64;100508.00;4992256;28;20255;-71
2022/11/21 05:09:42;;;;;;;15.60;6.93;;;;;;;-2.42;50.81;100501.97;4968973;28;20593;-71
2022/11/21 05:14:55;;;;;;;13.27;6.55;;;;;;;-2.47;51.14;100506.19;5004822;28;20044;-71
2022/11/21 05:17:21;;;;;;;14.75;8.43;;;;;;;-2.53;50.95;100503.59;4985976;28;20054;-72
2022/11/21 05:19:46;;;;;;;15.90;7.88;;;;;;;-2.48;51.08;100494.25;5003209;28;20098;-74
2022/11/21 05:22:12;;;;;;;13.90;7.95;;;;;;;-2.50;51.18;100481.44;4976010;28;20395;-74
2022/11/21 05:24:37;;;;;;;16.77;7.82;;;;;;;-2.55;51.05;100480.53;4988791;28;20033;-69
2022/11/21 05:27:03;;;;;;;16.02;7.57;;;;;;;-2.59;51.42;100480.50;5003004;28;20414;-70
2022/11/21 05:29:29;;;;;;;18.27;8.20;;;;;;;-2.52;51.28;100477.16;4986898;28;20037;-72
2022/11/21 05:31:54;;;;;;;13.45;7.22;;;;;;;-2.53;51.19;100470.31;4991282;28;20036;-73
2022/11/21 05:34:20;;;;;;;17.55;6.78;;;;;;;-2.54;51.18;100471.16;5006928;28;20017;-73
2022/11/21 05:36:45;;;;;;;22.30;8.27;;;;;;;-2.54;51.17;100471.16;4991553;28;20041;-72
2022/11/21 05:39:11;;;;;;;15.50;7.63;;;;;;;-2.59;50.98;100467.72;5001465;28;20034;-72
2022/11/21 05:41:36;;;;;;;13.32;7.63;;;;;;;-2.66;51.41;100467.66;5000530;28;20534;-73
2022/11/21 05:44:02;;;;;;;12.55;6.20;;;;;;;-2.64;51.50;100470.25;5003474;28;20058;-72
2022/11/21 05:46:27;;;;;;;17.02;9.38;;;;;;;-2.52;51.21;100461.78;5003379;28;20041;-73
2022/11/21 05:48:53;;;;;;;12.55;6.85;;;;;;;-2.56;51.09;100447.25;4999973;28;20266;-73
2022/11/21 05:51:20;;;;;;;18.67;7.95;;;;;;;-2.56;51.15;100442.97;4985981;28;20552;-73
2022/11/21 05:53:46;;;;;;;15.48;7.95;;;;;;;-2.53;51.01;100444.75;4987821;28;20049;-66
2022/11/21 05:56:14;;;;;;;15.25;7.13;;;;;;;-2.47;50.96;100444.75;4993043;28;20058;-67
2022/11/21 05:58:41;;;;;;;15.70;8.02;;;;;;;-2.50;51.01;100444.75;5002528;28;20049;-71
2022/11/21 06:01:08;;;;;;;17.40;8.15;;;;;;;-2.51;50.99;100445.59;5004021;28;20033;-70
2022/11/21 06:03:37;;;;;;;20.38;6.93;;;;;;;-2.50;51.33;100460.09;5003189;28;20095;-70
2022/11/21 06:06:12;;;;;;;14.95;7.93;;;;;;;-2.48;50.92;100449.03;5004415;28;20032;-71
2022/11/21 06:08:43;;;;;;;14.05;6.80;;;;;;;-2.52;50.90;100443.88;5001647;28;20041;-71
2022/11/21 06:11:11;;;;;;;13.23;7.13;;;;;;;-2.51;51.11;100438.78;4994770;28;20408;-72
2022/11/21 06:13:37;;;;;;;17.88;9.38;;;;;;;-2.57;51.03;100436.16;4999225;28;20049;-71
2022/11/21 06:16:05;;;;;;;18.05;7.85;;;;;;;-2.59;51.11;100444.69;5006868;28;20029;-71
2022/11/21 06:18:39;;;;;;;16.50;8.38;;;;;;;-2.55;51.13;100443.88;5003126;28;20522;-72
2022/11/21 06:21:11;;;;;;;17.15;7.22;;;;;;;-2.52;51.11;100436.19;4989679;28;20033;-71
2022/11/21 06:23:37;;;;;;;17.48;7.50;;;;;;;-2.59;51.10;100437.00;4981456;28;20780;-73
2022/11/21 06:26:06;;;;;;;20.48;8.50;;;;;;;-2.58;51.17;100433.59;5004578;28;20045;-74
2022/11/21 06:28:37;;;;;;;14.38;8.20;;;;;;;-2.57;51.33;100435.31;4980055;28;20057;-69
2022/11/21 06:31:08;;;;;;;23.73;9.57;;;;;;;-2.50;51.14;100434.50;5006945;28;20555;-68
2022/11/21 06:33:34;;;;;;;15.20;8.63;;;;;;;-2.58;51.17;100433.59;5000211;28;20064;-69
2022/11/21 06:36:11;;;;;;;22.08;9.95;;;;;;;-2.51;51.30;100437.94;5005400;28;20606;-68
2022/11/21 06:38:37;;;;;;;18.45;8.50;;;;;;;-2.33;51.02;100444.88;4973243;28;20049;-68
2022/11/21 06:41:09;;;;;;;24.67;10.23;;;;;;;-2.32;51.14;100452.53;4994673;28;20037;-68
2022/11/21 06:43:34;;;;;;;;;;;;;;;-2.17;51.22;100462.03;5006860;28;20050;-68
2022/11/21 06:46:02;;;;;;;17.05;9.23;;;;;;;-2.06;51.12;100456.97;4992158;28;19928;-67
2022/11/21 06:48:32;;;;;;;20.08;8.65;;;;;;;-1.95;50.93;100452.75;5005782;28;20094;-69
2022/11/21 06:51:02;;;;;;;18.83;9.45;;;;;;;-1.93;50.59;100452.75;5003342;28;20033;-69
2022/11/21 06:53:29;;;;;;;15.43;8.45;;;;;;;-1.97;50.53;100449.34;5006343;28;20060;-73
2022/11/21 06:55:58;;;;;;;21.48;9.43;;;;;;;-1.99;50.53;100450.19;4978119;28;20112;-70
2022/11/21 06:58:23;;;;;;;21.83;10.02;;;;;;;-1.91;50.57;100453.63;5006945;28;20168;-73
2022/11/21 07:00:48;;;;;;;19.55;9.80;;;;;;;-1.90;50.71;100448.50;4993938;28;20095;-72
2022/11/21 07:03:14;;;;;;;15.13;8.65;;;;;;;-1.84;50.57;100451.09;4995905;28;20077;-73
2022/11/21 07:05:40;;;;;;;23.05;9.80;;;;;;;-1.83;50.23;100447.69;4983628;28;20038;-74
2022/11/21 07:08:05;;;;;;;16.42;9.00;;;;;;;-1.78;50.20;100451.97;5007597;28;20037;-73
2022/11/21 07:10:31;;;;;;;16.88;8.65;;;;;;;-1.87;50.04;100452.78;5008340;28;20086;-75
2022/11/21 07:15:45;;;;;;;21.27;9.30;;;;;;;-1.98;50.08;100442.47;4985957;28;20044;-75
2022/11/21 07:18:11;;;;;;;23.73;8.98;;;;;;;-1.98;50.13;100442.47;4995323;28;20095;-70
2022/11/21 07:20:37;;;;;;;17.65;10.05;;;;;;;-1.99;50.23;100440.78;4992235;28;20037;-69
2022/11/21 07:23:05;;;;;;;15.77;8.20;;;;;;;-2.05;50.18;100448.44;4991084;28;20303;-68
2022/11/21 07:25:30;;;;;;;20.92;8.93;;;;;;;-2.08;50.46;100453.53;4978253;28;20037;-68
2022/11/21 07:28:02;;;;;;;16.80;9.73;;;;;;;-1.98;50.39;100447.59;5005818;28;20434;-69
2022/11/21 07:30:28;;;;;;;25.08;10.38;;;;;;;-1.94;50.38;100457.03;4992919;28;20041;-68
2022/11/21 07:32:58;;;;;;;19.25;9.20;;;;;;;-1.88;50.52;100454.50;5004669;28;20045;-68
2022/11/21 07:35:24;;;;;;;18.27;8.75;;;;;;;-1.82;50.31;100453.69;5004028;28;20037;-68
2022/11/21 07:37:50;;;;;;;18.17;9.68;;;;;;;-1.71;50.37;100456.25;4995784;28;20425;-68
2022/11/21 07:40:16;;;;;;;20.20;9.95;;;;;;;-1.71;50.30;100446.00;4995253;28;20099;-68
2022/11/21 07:42:42;;;;;;;20.95;10.18;;;;;;;-1.62;50.32;100446.03;5003679;28;20046;-69
2022/11/21 07:45:10;;;;;;;15.10;9.20;;;;;;;-1.60;50.06;100444.34;5008031;28;20140;-69
2022/11/21 07:47:38;;;;;;;16.67;9.82;;;;;;;-1.59;49.88;100446.06;5001347;28;20049;-69
2022/11/21 07:50:05;;;;;;;18.42;9.57;;;;;;;-1.52;50.00;100458.06;5004111;28;20036;-70
2022/11/21 07:52:31;;;;;;;21.30;9.90;;;;;;;-1.51;49.72;100449.53;5007756;28;20605;-69
2022/11/21 07:54:57;;;;;;;18.75;9.70;;;;;;;-1.44;50.09;100450.38;5004189;28;20033;-69
2022/11/21 07:57:23;;;;;;;28.63;13.02;;;;;;;-1.46;49.68;100442.69;5005582;28;20104;-69
2022/11/21 07:59:49;;;;;;;23.65;9.65;;;;;;;-1.41;49.79;100446.13;5005928;28;20828;-69
2022/11/21 08:02:19;;;;;;;19.85;8.75;;;;;;;-1.39;49.50;100451.25;5004558;28;20299;-69
2022/11/21 08:04:45;;;;;;;23.60;9.13;;;;;;;-1.54;49.41;100449.50;4989789;28;20790;-68
2022/11/21 08:07:11;;;;;;;20.58;9.38;;;;;;;-1.23;49.85;100458.13;5004692;28;20065;-68
2022/11/21 08:09:36;;;;;;;21.65;10.02;;;;;;;-1.09;49.68;100458.16;4976076;28;20612;-69
2022/11/21 08:12:02;;;;;;;21.33;10.80;;;;;;;-1.08;49.34;100444.50;5005113;28;20054;-70
2022/11/21 08:14:27;;;;;;;20.60;9.95;;;;;;;-0.88;49.34;100449.66;5007440;28;20040;-69
2022/11/21 08:16:55;;;;;;;18.45;9.00;;;;;;;-0.77;49.20;100454.81;5005161;28;20045;-69
2022/11/21 08:19:20;;;;;;;23.92;10.45;;;;;;;-0.77;49.21;100449.69;5011361;28;20615;-69
2022/11/21 08:21:46;;;;;;;17.63;9.80;;;;;;;-0.80;48.85;100444.53;4992649;28;20040;-69
2022/11/21 08:24:13;;;;;;;20.35;11.13;;;;;;;-0.75;48.61;100445.38;5007484;28;20029;-68
2022/11/21 08:26:39;;;;;;;28.25;12.90;;;;;;;-0.43;48.63;100437.66;4990134;28;20736;-68
2022/11/21 08:29:05;;;;;;;26.20;11.75;;;;;;;-0.58;48.72;100440.25;4975616;28;20069;-68
2022/11/21 08:31:30;;;;;;;22.80;10.48;;;;;;;-0.59;48.83;100438.56;5005775;28;20160;-68
2022/11/21 08:33:56;;;;;;;18.15;10.05;;;;;;;-0.44;48.79;100442.78;4991154;28;20252;-68
2022/11/21 08:36:24;;;;;;;23.33;10.95;;;;;;;-0.47;48.45;100440.25;4994425;28;20029;-68
2022/11/21 08:38:51;;;;;;;22.08;11.32;;;;;;;-0.42;48.62;100438.50;5003989;28;20037;-68
2022/11/21 08:44:01;;;;;;;19.85;10.30;;;;;;;-0.44;48.32;100427.38;5004776;28;20650;-67
2022/11/21 08:46:27;;;;;;;21.45;11.20;;;;;;;-0.41;48.21;100437.66;4995760;28;20033;-69
2022/11/21 08:48:55;;;;;;;26.83;11.48;;;;;;;-0.48;48.38;100430.81;4980088;28;20041;-71
2022/11/21 08:51:21;;;;;;;18.20;10.02;;;;;;;-0.52;48.54;100436.84;5006961;28;20037;-69
2022/11/21 08:53:47;;;;;;;23.67;11.75;;;;;;;-0.49;48.45;100434.25;5003080;28;20586;-70
2022/11/21 08:56:12;;;;;;;25.73;11.65;;;;;;;-0.46;48.21;100429.97;4992767;28;20084;-69
2022/11/21 08:58:39;;;;;;;26.85;12.13;;;;;;;-0.40;48.57;100423.97;4990485;28;20057;-68
2022/11/21 09:01:07;;;;;;;22.75;11.05;;;;;;;-0.40;48.38;100424.81;5001429;28;20042;-68
2022/11/21 09:03:35;;;;;;;20.33;11.13;;;;;;;-0.20;48.70;100414.50;4982342;28;20049;-69
2022/11/21 09:06:00;;;;;;;20.27;11.27;;;;;;;-0.24;48.11;100412.78;4991405;28;20544;-69
2022/11/21 09:08:26;;;;;;;19.77;9.82;;;;;;;-0.15;47.97;100417.03;5006111;28;20148;-71
2022/11/21 09:10:51;;;;;;;30.42;12.15;;;;;;;-0.27;48.38;100410.22;5003219;28;20380;-69
2022/11/21 09:13:17;;;;;;;22.52;10.50;;;;;;;-0.20;48.36;100414.50;4993636;28;20061;-68
2022/11/21 09:18:27;;;;;;;21.33;11.50;;;;;;;0.12;47.56;100408.38;5004293;28;20301;-68
2022/11/21 09:20:52;;;;;;;18.45;10.43;;;;;;;0.23;47.15;100400.63;5006954;28;20414;-68
2022/11/21 09:23:18;;;;;;;26.05;11.65;;;;;;;0.16;47.37;100399.78;5006724;28;20507;-68
2022/11/21 09:25:44;;;;;;;24.55;12.82;;;;;;;0.39;47.52;100401.41;5002312;28;20025;-69
2022/11/21 09:28:13;;;;;;;23.42;11.18;;;;;;;0.56;47.12;100403.88;5005005;28;20132;-69
2022/11/21 09:30:41;;;;;;;21.05;10.98;;;;;;;-0.27;48.02;100405.09;5001585;28;20734;-68
2022/11/21 09:33:12;;;;;;;30.83;11.80;;;;;;;-0.05;47.56;100405.03;5004711;28;20670;-68
2022/11/21 09:35:38;;;;;;;18.10;8.53;;;;;;;-0.07;47.50;100405.03;5003470;28;20120;-69
2022/11/21 09:38:04;;;;;;;22.90;11.77;;;;;;;0.48;47.12;100414.22;4992588;28;20292;-69
2022/11/21 09:40:32;;;;;;;23.40;11.82;;;;;;;0.12;47.13;100416.09;4972799;28;20096;-69
2022/11/21 09:43:15;;;;;;;23.48;11.38;;;;;;;-0.17;47.65;100408.47;5002864;28;20103;-69
2022/11/21 09:45:49;;;;;;;19.58;10.27;;;;;;;0.05;47.55;100412.72;5003281;28;20029;-68
2022/11/21 09:48:29;;;;;;;27.40;10.98;;;;;;;0.34;47.13;100418.56;4974368;28;20234;-70
2022/11/21 09:51:02;;;;;;;21.80;10.18;;;;;;;0.21;47.46;100418.66;5003586;28;20955;-69
2022/11/21 09:53:35;;;;;;;16.30;9.00;;;;;;;0.27;47.76;100418.59;5005949;28;20058;-68
2022/11/21 09:56:09;;;;;;;20.23;9.43;;;;;;;0.28;47.37;100414.34;4992263;28;20034;-68
2022/11/21 09:58:44;;;;;;;17.95;10.65;;;;;;;0.25;47.51;100409.19;4982369;28;20218;-69
2022/11/21 10:01:14;;;;;;;20.70;10.38;;;;;;;0.28;47.52;100409.19;5002458;28;20113;-69
2022/11/21 10:03:44;;;;;;;17.20;9.40;;;;;;;0.16;47.74;100407.50;4959250;28;20454;-67
2022/11/21 10:06:43;;;;;;;18.35;9.80;;;;;;;0.28;47.66;100398.91;4976134;28;20076;-67
2022/11/21 10:09:26;;;;;;;20.40;10.18;;;;;;;0.41;47.41;100404.81;5002907;28;20046;-67
2022/11/21 10:15:18;;;;;;;16.60;9.90;;;;;;;0.49;47.52;100395.34;5000351;28;20200;-67
2022/11/21 10:18:22;;;;;;;19.27;9.77;;;;;;;0.64;46.97;100397.84;4986533;28;20053;-68
2022/11/21 10:20:54;;;;;;;19.02;9.98;;;;;;;0.74;46.90;100390.06;5003767;28;20041;-68
2022/11/21 10:23:28;;;;;;;;;;;;;;;0.66;46.41;100390.97;5004373;28;20069;-67
2022/11/21 10:26:13;;;;;;;25.88;9.15;;;;;;;0.66;46.35;100380.69;5005342;28;19956;-67
2022/11/21 10:28:43;;;;;;;15.35;9.27;;;;;;;0.72;46.75;100379.75;4989940;28;20608;-70
2022/11/21 10:31:12;;;;;;;24.80;11.07;;;;;;;0.93;46.37;100372.78;4993567;28;20037;-69
2022/11/21 10:33:39;;;;;;;18.65;9.65;;;;;;;0.98;46.18;100371.84;4988706;28;20411;-70
2022/11/21 10:36:28;;;;;;;22.02;10.85;;;;;;;1.12;45.88;100358.84;5009523;28;20123;-70
2022/11/21 10:38:59;;;;;;;20.27;9.82;;;;;;;1.02;45.74;100357.25;5007179;28;20112;-70
2022/11/21 10:41:47;;;;;;;18.23;9.77;;;;;;;0.97;45.10;100344.44;5003366;28;20046;-70
2022/11/21 10:47:31;;;;;;;15.52;8.90;;;;;;;1.03;45.80;100339.19;4972154;28;20771;-66
2022/11/21 10:50:14;;;;;;;15.45;8.88;;;;;;;1.32;45.62;100340.66;4971326;28;20042;-70
2022/11/21 10:52:46;;;;;;;18.40;9.00;;;;;;;1.41;44.79;100332.84;4981665;28;20577;-70
2022/11/21 10:55:13;;;;;;;17.42;7.85;;;;;;;1.27;44.73;100326.97;4966582;28;20064;-67
2022/11/21 10:57:45;;;;;;;17.10;9.90;;;;;;;1.70;44.23;100317.06;4978449;28;20123;-70
2022/11/21 11:00:11;;;;;;;16.17;7.53;;;;;;;1.73;43.75;100316.19;4983590;28;20534;-68
2022/11/21 11:02:37;;;;;;;16.77;9.73;;;;;;;2.34;42.99;100307.63;4962603;28;20244;-68
2022/11/21 11:05:15;;;;;;;17.40;8.30;;;;;;;2.22;43.32;100289.75;4968187;28;20108;-68
2022/11/21 11:07:41;;;;;;;16.95;8.63;;;;;;;3.15;41.22;100282.16;4982864;28;21386;-68
2022/11/21 11:10:15;;;;;;;14.63;7.47;;;;;;;3.18;41.10;100274.38;4966304;28;20104;-70
2022/11/21 11:15:26;;;;;;;14.75;7.75;;;;;;;3.76;39.96;100276.69;4969752;28;20591;-70
2022/11/21 11:17:58;;;;;;;16.23;6.88;;;;;;;4.07;38.74;100263.09;4985370;28;20046;-69
2022/11/21 11:20:34;;;;;;;13.05;7.03;;;;;;;4.32;38.34;100255.63;4987564;28;20034;-69
2022/11/21 11:23:21;;;;;;;12.57;6.53;;;;;;;4.22;36.70;100255.00;4988932;28;20477;-68
2022/11/21 11:25:49;;;;;;;13.48;6.10;;;;;;;4.50;37.70;100249.16;4987046;28;20057;-69
2022/11/21 11:28:15;;;;;;;12.30;5.82;;;;;;;3.84;38.48;100246.38;4986593;28;20085;-69
2022/11/21 11:30:41;;;;;;;15.93;6.22;;;;;;;3.76;38.62;100250.84;4986445;28;20042;-69
2022/11/21 11:33:28;;;;;;;8.45;5.20;;;;;;;3.99;38.30;100252.94;4990709;28;20041;-69
2022/11/21 11:36:01;;;;;;;13.07;5.43;;;;;;;3.58;38.45;100245.22;4989431;28;20041;-69
2022/11/21 11:38:29;;;;;;;12.63;5.07;;;;;;;3.36;39.57;100246.53;4987029;28;20045;-68
2022/11/21 11:40:59;;;;;;;11.32;5.55;;;;;;;3.58;39.73;100242.63;4987225;28;20068;-69
2022/11/21 11:49:29;;;;;;;8.65;4.97;;;;;;;2.96;39.78;100232.63;4988124;28;20159;-67
2022/11/21 11:52:01;;;;;;;9.20;4.93;;;;;;;2.96;39.96;100226.63;4970507;28;20167;-68